sensor_id;sensor_type;location;lat;lon;timestamp;P1;durP1;ratioP1;P2;durP2;ratioP2
40154;SDS011;25875;48.202;16.334;2022-11-20T00:00:05;26.95;;;18.77;;
40154;SDS011;25875;48.202;16.334;2022-11-20T00:02:32;23.20;;;15.95;;
40154;SDS011;25875;48.202;16.334;2022-11-20T00:04:59;22.60;;;15.23;;
40154;SDS011;25875;48.202;16.334;2022-11-20T00:07:27;28.65;;;17.13;;
40154;SDS011;25875;48.202;16.334;2022-11-20T00:09:54;26.23;;;17.38;;
40154;SDS011;25875;48.202;16.334;2022-11-20T00:12:20;28.13;;;17.27;;
40154;SDS011;25875;48.202;16.334;2022-11-20T00:14:47;25.27;;;16.58;;
40154;SDS011;25875;48.202;16.334;2022-11-20T00:17:14;23.15;;;15.70;;
40154;SDS011;25875;48.202;16.334;2022-11-20T00:19:41;25.55;;;16.35;;
40154;SDS011;25875;48.202;16.334;2022-11-20T00:22:08;22.70;;;14.77;;
40154;SDS011;25875;48.202;16.334;2022-11-20T00:24:36;22.33;;;15.63;;
40154;SDS011;25875;48.202;16.334;2022-11-20T00:27:03;22.52;;;15.55;;
40154;SDS011;25875;48.202;16.334;2022-11-20T00:29:29;22.52;;;15.40;;
40154;SDS011;25875;48.202;16.334;2022-11-20T00:31:56;22.20;;;14.65;;
40154;SDS011;25875;48.202;16.334;2022-11-20T00:34:23;22.55;;;16.08;;
40154;SDS011;25875;48.202;16.334;2022-11-20T00:36:50;23.33;;;16.25;;
40154;SDS011;25875;48.202;16.334;2022-11-20T00:39:16;25.77;;;16.63;;
40154;SDS011;25875;48.202;16.334;2022-11-20T00:41:45;23.75;;;16.40;;
40154;SDS011;25875;48.202;16.334;2022-11-20T00:44:11;25.63;;;17.10;;
40154;SDS011;25875;48.202;16.334;2022-11-20T00:46:38;25.50;;;16.45;;
40154;SDS011;25875;48.202;16.334;2022-11-20T00:49:05;24.08;;;15.63;;
40154;SDS011;25875;48.202;16.334;2022-11-20T00:51:32;22.75;;;14.35;;
40154;SDS011;25875;48.202;16.334;2022-11-20T00:53:59;25.38;;;16.67;;
40154;SDS011;25875;48.202;16.334;2022-11-20T00:56:27;26.88;;;17.23;;
40154;SDS011;25875;48.202;16.334;2022-11-20T00:58:55;25.80;;;15.82;;
40154;SDS011;25875;48.202;16.334;2022-11-20T01:01:25;21.25;;;14.02;;
40154;SDS011;25875;48.202;16.334;2022-11-20T01:03:54;20.20;;;14.07;;
40154;SDS011;25875;48.202;16.334;2022-11-20T01:06:23;18.52;;;13.45;;
40154;SDS011;25875;48.202;16.334;2022-11-20T01:08:52;21.52;;;16.27;;
40154;SDS011;25875;48.202;16.334;2022-11-20T01:11:21;22.05;;;14.57;;
40154;SDS011;25875;48.202;16.334;2022-11-20T01:13:50;21.50;;;14.93;;
40154;SDS011;25875;48.202;16.334;2022-11-20T01:16:20;20.88;;;14.73;;
40154;SDS011;25875;48.202;16.334;2022-11-20T01:18:48;20.38;;;14.00;;
40154;SDS011;25875;48.202;16.334;2022-11-20T01:21:16;22.17;;;15.15;;
40154;SDS011;25875;48.202;16.334;2022-11-20T01:23:44;20.75;;;14.35;;
40154;SDS011;25875;48.202;16.334;2022-11-20T01:26:13;22.55;;;15.07;;
40154;SDS011;25875;48.202;16.334;2022-11-20T01:28:42;20.65;;;13.93;;
40154;SDS011;25875;48.202;16.334;2022-11-20T01:31:12;23.15;;;16.20;;
40154;SDS011;25875;48.202;16.334;2022-11-20T01:33:43;21.52;;;14.85;;
40154;SDS011;25875;48.202;16.334;2022-11-20T01:36:11;22.17;;;15.82;;
40154;SDS011;25875;48.202;16.334;2022-11-20T01:38:39;22.73;;;15.02;;
40154;SDS011;25875;48.202;16.334;2022-11-20T01:41:06;22.23;;;15.10;;
40154;SDS011;25875;48.202;16.334;2022-11-20T01:43:34;22.65;;;15.50;;
40154;SDS011;25875;48.202;16.334;2022-11-20T01:46:02;21.63;;;14.75;;
40154;SDS011;25875;48.202;16.334;2022-11-20T01:48:40;22.90;;;14.70;;
40154;SDS011;25875;48.202;16.334;2022-11-20T01:51:17;21.17;;;14.85;;
40154;SDS011;25875;48.202;16.334;2022-11-20T01:53:49;22.38;;;15.35;;
40154;SDS011;25875;48.202;16.334;2022-11-20T01:56:18;21.15;;;14.90;;
40154;SDS011;25875;48.202;16.334;2022-11-20T01:58:47;23.42;;;17.20;;
40154;SDS011;25875;48.202;16.334;2022-11-20T02:01:16;21.58;;;15.38;;
40154;SDS011;25875;48.202;16.334;2022-11-20T02:03:43;24.77;;;17.08;;
40154;SDS011;25875;48.202;16.334;2022-11-20T02:06:14;23.05;;;15.15;;
40154;SDS011;25875;48.202;16.334;2022-11-20T02:08:45;21.90;;;15.10;;
40154;SDS011;25875;48.202;16.334;2022-11-20T02:11:12;21.13;;;15.10;;
40154;SDS011;25875;48.202;16.334;2022-11-20T02:13:39;23.98;;;16.23;;
40154;SDS011;25875;48.202;16.334;2022-11-20T02:16:08;26.60;;;16.70;;
40154;SDS011;25875;48.202;16.334;2022-11-20T02:18:38;22.52;;;16.08;;
40154;SDS011;25875;48.202;16.334;2022-11-20T02:21:07;24.38;;;16.13;;
40154;SDS011;25875;48.202;16.334;2022-11-20T02:23:41;25.80;;;15.93;;
40154;SDS011;25875;48.202;16.334;2022-11-20T02:26:20;25.35;;;16.08;;
40154;SDS011;25875;48.202;16.334;2022-11-20T02:28:49;28.00;;;16.33;;
40154;SDS011;25875;48.202;16.334;2022-11-20T02:31:16;24.50;;;15.30;;
40154;SDS011;25875;48.202;16.334;2022-11-20T02:33:43;26.48;;;16.90;;
40154;SDS011;25875;48.202;16.334;2022-11-20T02:36:11;24.60;;;16.85;;
40154;SDS011;25875;48.202;16.334;2022-11-20T02:38:41;24.70;;;15.63;;
40154;SDS011;25875;48.202;16.334;2022-11-20T02:41:10;26.10;;;16.83;;
40154;SDS011;25875;48.202;16.334;2022-11-20T02:43:37;24.27;;;16.95;;
40154;SDS011;25875;48.202;16.334;2022-11-20T02:46:06;23.58;;;16.20;;
40154;SDS011;25875;48.202;16.334;2022-11-20T02:48:33;25.27;;;17.73;;
40154;SDS011;25875;48.202;16.334;2022-11-20T02:51:00;26.23;;;17.08;;
40154;SDS011;25875;48.202;16.334;2022-11-20T02:53:27;23.45;;;16.38;;
40154;SDS011;25875;48.202;16.334;2022-11-20T02:55:54;23.08;;;16.88;;
40154;SDS011;25875;48.202;16.334;2022-11-20T02:58:23;26.05;;;15.93;;
40154;SDS011;25875;48.202;16.334;2022-11-20T03:00:51;26.33;;;15.45;;
40154;SDS011;25875;48.202;16.334;2022-11-20T03:03:18;24.65;;;16.70;;
40154;SDS011;25875;48.202;16.334;2022-11-20T03:05:51;22.58;;;15.50;;
40154;SDS011;25875;48.202;16.334;2022-11-20T03:08:18;25.33;;;17.10;;
40154;SDS011;25875;48.202;16.334;2022-11-20T03:10:45;21.73;;;15.20;;
40154;SDS011;25875;48.202;16.334;2022-11-20T03:13:12;23.60;;;14.10;;
40154;SDS011;25875;48.202;16.334;2022-11-20T03:15:40;23.92;;;16.00;;
40154;SDS011;25875;48.202;16.334;2022-11-20T03:18:07;23.17;;;15.68;;
40154;SDS011;25875;48.202;16.334;2022-11-20T03:20:34;24.70;;;16.02;;
40154;SDS011;25875;48.202;16.334;2022-11-20T03:23:02;24.02;;;15.50;;
40154;SDS011;25875;48.202;16.334;2022-11-20T03:25:29;24.30;;;15.90;;
40154;SDS011;25875;48.202;16.334;2022-11-20T03:27:56;21.60;;;14.52;;
40154;SDS011;25875;48.202;16.334;2022-11-20T03:30:22;25.58;;;16.45;;
40154;SDS011;25875;48.202;16.334;2022-11-20T03:32:53;23.95;;;15.00;;
40154;SDS011;25875;48.202;16.334;2022-11-20T03:35:20;26.92;;;16.75;;
40154;SDS011;25875;48.202;16.334;2022-11-20T03:37:47;25.80;;;17.08;;
40154;SDS011;25875;48.202;16.334;2022-11-20T03:40:14;24.77;;;16.92;;
40154;SDS011;25875;48.202;16.334;2022-11-20T03:42:41;25.73;;;16.65;;
40154;SDS011;25875;48.202;16.334;2022-11-20T03:45:14;24.58;;;15.57;;
40154;SDS011;25875;48.202;16.334;2022-11-20T03:47:42;22.48;;;16.25;;
40154;SDS011;25875;48.202;16.334;2022-11-20T03:50:11;24.45;;;15.75;;
40154;SDS011;25875;48.202;16.334;2022-11-20T03:52:40;27.40;;;16.80;;
40154;SDS011;25875;48.202;16.334;2022-11-20T03:55:07;25.83;;;17.00;;
40154;SDS011;25875;48.202;16.334;2022-11-20T03:57:34;23.60;;;15.95;;
40154;SDS011;25875;48.202;16.334;2022-11-20T04:00:01;26.30;;;16.33;;
40154;SDS011;25875;48.202;16.334;2022-11-20T04:02:28;23.88;;;15.93;;
40154;SDS011;25875;48.202;16.334;2022-11-20T04:04:55;23.42;;;15.25;;
40154;SDS011;25875;48.202;16.334;2022-11-20T04:07:23;23.08;;;15.38;;
40154;SDS011;25875;48.202;16.334;2022-11-20T04:09:50;23.40;;;15.18;;
40154;SDS011;25875;48.202;16.334;2022-11-20T04:12:17;24.02;;;16.35;;
40154;SDS011;25875;48.202;16.334;2022-11-20T04:14:43;25.33;;;16.42;;
40154;SDS011;25875;48.202;16.334;2022-11-20T04:17:10;24.17;;;15.95;;
40154;SDS011;25875;48.202;16.334;2022-11-20T04:19:37;24.98;;;16.00;;
40154;SDS011;25875;48.202;16.334;2022-11-20T04:22:03;23.08;;;14.90;;
40154;SDS011;25875;48.202;16.334;2022-11-20T04:24:32;24.00;;;16.17;;
40154;SDS011;25875;48.202;16.334;2022-11-20T04:27:00;21.63;;;14.95;;
40154;SDS011;25875;48.202;16.334;2022-11-20T04:29:26;26.02;;;16.27;;
40154;SDS011;25875;48.202;16.334;2022-11-20T04:31:53;26.30;;;17.70;;
40154;SDS011;25875;48.202;16.334;2022-11-20T04:34:20;23.50;;;15.95;;
40154;SDS011;25875;48.202;16.334;2022-11-20T04:36:46;25.38;;;15.90;;
40154;SDS011;25875;48.202;16.334;2022-11-20T04:39:13;23.60;;;15.80;;
40154;SDS011;25875;48.202;16.334;2022-11-20T04:41:43;23.38;;;15.27;;
40154;SDS011;25875;48.202;16.334;2022-11-20T04:44:10;28.92;;;16.70;;
40154;SDS011;25875;48.202;16.334;2022-11-20T04:46:37;24.83;;;15.48;;
40154;SDS011;25875;48.202;16.334;2022-11-20T04:49:06;28.50;;;18.52;;
40154;SDS011;25875;48.202;16.334;2022-11-20T04:51:33;27.13;;;15.82;;
40154;SDS011;25875;48.202;16.334;2022-11-20T04:54:00;26.08;;;16.85;;
40154;SDS011;25875;48.202;16.334;2022-11-20T04:56:27;26.40;;;16.25;;
40154;SDS011;25875;48.202;16.334;2022-11-20T04:58:55;27.08;;;15.90;;
40154;SDS011;25875;48.202;16.334;2022-11-20T05:01:25;25.70;;;15.55;;
40154;SDS011;25875;48.202;16.334;2022-11-20T05:03:52;26.83;;;17.65;;
40154;SDS011;25875;48.202;16.334;2022-11-20T05:06:22;26.33;;;16.10;;
40154;SDS011;25875;48.202;16.334;2022-11-20T05:08:49;26.30;;;16.05;;
40154;SDS011;25875;48.202;16.334;2022-11-20T05:11:16;27.33;;;17.27;;
40154;SDS011;25875;48.202;16.334;2022-11-20T05:13:44;25.05;;;16.60;;
40154;SDS011;25875;48.202;16.334;2022-11-20T05:16:13;26.05;;;16.75;;
40154;SDS011;25875;48.202;16.334;2022-11-20T05:18:41;25.90;;;16.00;;
40154;SDS011;25875;48.202;16.334;2022-11-20T05:21:09;26.23;;;18.02;;
40154;SDS011;25875;48.202;16.334;2022-11-20T05:23:36;23.85;;;15.90;;
40154;SDS011;25875;48.202;16.334;2022-11-20T05:26:04;23.58;;;16.27;;
40154;SDS011;25875;48.202;16.334;2022-11-20T05:28:32;24.30;;;16.52;;
40154;SDS011;25875;48.202;16.334;2022-11-20T05:31:03;25.50;;;16.98;;
40154;SDS011;25875;48.202;16.334;2022-11-20T05:33:33;21.52;;;14.48;;
40154;SDS011;25875;48.202;16.334;2022-11-20T05:36:00;23.95;;;16.98;;
40154;SDS011;25875;48.202;16.334;2022-11-20T05:38:27;21.42;;;15.65;;
40154;SDS011;25875;48.202;16.334;2022-11-20T05:40:53;25.20;;;16.67;;
40154;SDS011;25875;48.202;16.334;2022-11-20T05:43:20;24.23;;;14.15;;
40154;SDS011;25875;48.202;16.334;2022-11-20T05:45:53;20.77;;;14.48;;
40154;SDS011;25875;48.202;16.334;2022-11-20T05:48:20;22.35;;;14.85;;
40154;SDS011;25875;48.202;16.334;2022-11-20T05:50:48;22.17;;;15.32;;
40154;SDS011;25875;48.202;16.334;2022-11-20T05:53:15;22.35;;;15.80;;
40154;SDS011;25875;48.202;16.334;2022-11-20T05:55:42;30.85;;;19.17;;
40154;SDS011;25875;48.202;16.334;2022-11-20T05:58:08;22.92;;;15.13;;
40154;SDS011;25875;48.202;16.334;2022-11-20T06:00:35;21.88;;;14.38;;
40154;SDS011;25875;48.202;16.334;2022-11-20T06:03:02;23.58;;;15.10;;
40154;SDS011;25875;48.202;16.334;2022-11-20T06:05:29;22.77;;;15.65;;
40154;SDS011;25875;48.202;16.334;2022-11-20T06:07:57;25.48;;;15.80;;
40154;SDS011;25875;48.202;16.334;2022-11-20T06:10:26;25.02;;;16.15;;
40154;SDS011;25875;48.202;16.334;2022-11-20T06:12:53;24.08;;;16.27;;
40154;SDS011;25875;48.202;16.334;2022-11-20T06:15:19;24.77;;;16.42;;
40154;SDS011;25875;48.202;16.334;2022-11-20T06:17:46;25.90;;;15.73;;
40154;SDS011;25875;48.202;16.334;2022-11-20T06:20:13;24.83;;;16.73;;
40154;SDS011;25875;48.202;16.334;2022-11-20T06:22:40;24.42;;;18.25;;
40154;SDS011;25875;48.202;16.334;2022-11-20T06:25:08;24.38;;;16.15;;
40154;SDS011;25875;48.202;16.334;2022-11-20T06:27:35;23.20;;;15.45;;
40154;SDS011;25875;48.202;16.334;2022-11-20T06:30:02;23.17;;;15.48;;
40154;SDS011;25875;48.202;16.334;2022-11-20T06:32:29;26.10;;;17.85;;
40154;SDS011;25875;48.202;16.334;2022-11-20T06:34:56;22.60;;;16.25;;
40154;SDS011;25875;48.202;16.334;2022-11-20T06:37:22;23.10;;;15.73;;
40154;SDS011;25875;48.202;16.334;2022-11-20T06:39:49;21.70;;;15.27;;
40154;SDS011;25875;48.202;16.334;2022-11-20T06:42:17;28.05;;;18.20;;
40154;SDS011;25875;48.202;16.334;2022-11-20T06:44:44;22.80;;;15.40;;
40154;SDS011;25875;48.202;16.334;2022-11-20T06:47:10;25.75;;;16.92;;
40154;SDS011;25875;48.202;16.334;2022-11-20T06:49:37;28.17;;;16.90;;
40154;SDS011;25875;48.202;16.334;2022-11-20T06:52:04;23.25;;;15.32;;
40154;SDS011;25875;48.202;16.334;2022-11-20T06:54:31;24.77;;;16.77;;
40154;SDS011;25875;48.202;16.334;2022-11-20T06:56:57;25.45;;;18.23;;
40154;SDS011;25875;48.202;16.334;2022-11-20T06:59:26;24.90;;;17.13;;
40154;SDS011;25875;48.202;16.334;2022-11-20T07:01:52;23.52;;;16.40;;
40154;SDS011;25875;48.202;16.334;2022-11-20T07:04:19;23.85;;;17.15;;
40154;SDS011;25875;48.202;16.334;2022-11-20T07:06:46;24.63;;;17.70;;
40154;SDS011;25875;48.202;16.334;2022-11-20T07:09:12;26.20;;;19.05;;
40154;SDS011;25875;48.202;16.334;2022-11-20T07:11:39;26.50;;;16.85;;
40154;SDS011;25875;48.202;16.334;2022-11-20T07:14:06;26.90;;;17.02;;
40154;SDS011;25875;48.202;16.334;2022-11-20T07:16:34;29.75;;;19.27;;
40154;SDS011;25875;48.202;16.334;2022-11-20T07:19:01;26.55;;;16.25;;
40154;SDS011;25875;48.202;16.334;2022-11-20T07:21:28;27.38;;;18.48;;
40154;SDS011;25875;48.202;16.334;2022-11-20T07:23:55;25.70;;;17.02;;
40154;SDS011;25875;48.202;16.334;2022-11-20T07:26:22;25.65;;;17.20;;
40154;SDS011;25875;48.202;16.334;2022-11-20T07:28:49;24.75;;;16.70;;
40154;SDS011;25875;48.202;16.334;2022-11-20T07:31:15;25.15;;;17.83;;
40154;SDS011;25875;48.202;16.334;2022-11-20T07:33:44;25.15;;;17.50;;
40154;SDS011;25875;48.202;16.334;2022-11-20T07:36:11;24.42;;;16.48;;
40154;SDS011;25875;48.202;16.334;2022-11-20T07:38:37;25.25;;;16.40;;
40154;SDS011;25875;48.202;16.334;2022-11-20T07:41:04;27.30;;;18.73;;
40154;SDS011;25875;48.202;16.334;2022-11-20T07:43:31;24.08;;;16.70;;
40154;SDS011;25875;48.202;16.334;2022-11-20T07:45:58;25.05;;;16.52;;
40154;SDS011;25875;48.202;16.334;2022-11-20T07:48:25;27.67;;;18.40;;
40154;SDS011;25875;48.202;16.334;2022-11-20T07:50:54;27.63;;;18.10;;
40154;SDS011;25875;48.202;16.334;2022-11-20T07:53:21;29.50;;;18.65;;
40154;SDS011;25875;48.202;16.334;2022-11-20T07:55:48;27.65;;;18.02;;
40154;SDS011;25875;48.202;16.334;2022-11-20T07:58:17;29.73;;;18.50;;
40154;SDS011;25875;48.202;16.334;2022-11-20T08:00:44;27.10;;;18.60;;
40154;SDS011;25875;48.202;16.334;2022-11-20T08:03:14;26.92;;;18.83;;
40154;SDS011;25875;48.202;16.334;2022-11-20T08:05:41;25.65;;;17.08;;
40154;SDS011;25875;48.202;16.334;2022-11-20T08:08:09;28.38;;;18.20;;
40154;SDS011;25875;48.202;16.334;2022-11-20T08:10:36;27.13;;;18.25;;
40154;SDS011;25875;48.202;16.334;2022-11-20T08:13:02;27.40;;;17.08;;
40154;SDS011;25875;48.202;16.334;2022-11-20T08:15:48;26.98;;;19.00;;
40154;SDS011;25875;48.202;16.334;2022-11-20T08:18:16;26.60;;;18.23;;
40154;SDS011;25875;48.202;16.334;2022-11-20T08:20:44;28.58;;;19.48;;
40154;SDS011;25875;48.202;16.334;2022-11-20T08:23:12;27.58;;;19.65;;
40154;SDS011;25875;48.202;16.334;2022-11-20T08:25:39;31.35;;;21.70;;
40154;SDS011;25875;48.202;16.334;2022-11-20T08:28:07;29.98;;;19.48;;
40154;SDS011;25875;48.202;16.334;2022-11-20T08:30:35;30.45;;;22.60;;
40154;SDS011;25875;48.202;16.334;2022-11-20T08:33:04;26.70;;;19.50;;
40154;SDS011;25875;48.202;16.334;2022-11-20T08:35:33;28.35;;;19.05;;
40154;SDS011;25875;48.202;16.334;2022-11-20T08:38:01;27.55;;;18.73;;
40154;SDS011;25875;48.202;16.334;2022-11-20T08:40:29;32.45;;;19.90;;
40154;SDS011;25875;48.202;16.334;2022-11-20T08:42:56;30.42;;;21.50;;
40154;SDS011;25875;48.202;16.334;2022-11-20T08:45:22;30.80;;;20.08;;
40154;SDS011;25875;48.202;16.334;2022-11-20T08:47:49;30.35;;;19.98;;
40154;SDS011;25875;48.202;16.334;2022-11-20T08:50:16;28.52;;;18.73;;
40154;SDS011;25875;48.202;16.334;2022-11-20T08:52:43;29.13;;;18.50;;
40154;SDS011;25875;48.202;16.334;2022-11-20T08:55:10;29.77;;;18.48;;
40154;SDS011;25875;48.202;16.334;2022-11-20T08:57:39;28.25;;;19.67;;
40154;SDS011;25875;48.202;16.334;2022-11-20T09:00:06;28.67;;;20.25;;
40154;SDS011;25875;48.202;16.334;2022-11-20T09:02:34;28.40;;;19.55;;
40154;SDS011;25875;48.202;16.334;2022-11-20T09:05:01;30.17;;;19.67;;
40154;SDS011;25875;48.202;16.334;2022-11-20T09:07:28;28.40;;;18.88;;
40154;SDS011;25875;48.202;16.334;2022-11-20T09:09:55;32.47;;;18.77;;
40154;SDS011;25875;48.202;16.334;2022-11-20T09:12:22;31.38;;;20.00;;
40154;SDS011;25875;48.202;16.334;2022-11-20T09:14:50;28.65;;;18.95;;
40154;SDS011;25875;48.202;16.334;2022-11-20T09:17:17;27.92;;;19.00;;
40154;SDS011;25875;48.202;16.334;2022-11-20T09:19:45;29.38;;;21.05;;
40154;SDS011;25875;48.202;16.334;2022-11-20T09:22:12;29.90;;;19.23;;
40154;SDS011;25875;48.202;16.334;2022-11-20T09:24:39;31.15;;;20.30;;
40154;SDS011;25875;48.202;16.334;2022-11-20T09:27:05;27.75;;;18.05;;
40154;SDS011;25875;48.202;16.334;2022-11-20T09:29:32;30.30;;;20.27;;
40154;SDS011;25875;48.202;16.334;2022-11-20T09:32:00;31.27;;;19.08;;
40154;SDS011;25875;48.202;16.334;2022-11-20T09:34:27;29.92;;;20.10;;
40154;SDS011;25875;48.202;16.334;2022-11-20T09:36:54;27.48;;;19.17;;
40154;SDS011;25875;48.202;16.334;2022-11-20T09:39:21;31.67;;;21.02;;
40154;SDS011;25875;48.202;16.334;2022-11-20T09:44:54;26.67;;;18.60;;
40154;SDS011;25875;48.202;16.334;2022-11-20T09:47:35;26.77;;;19.25;;
40154;SDS011;25875;48.202;16.334;2022-11-20T09:50:15;29.77;;;20.42;;
40154;SDS011;25875;48.202;16.334;2022-11-20T09:52:57;34.38;;;21.45;;
40154;SDS011;25875;48.202;16.334;2022-11-20T09:55:33;29.08;;;19.75;;
40154;SDS011;25875;48.202;16.334;2022-11-20T09:58:02;30.98;;;19.50;;
40154;SDS011;25875;48.202;16.334;2022-11-20T10:00:32;31.15;;;20.95;;
40154;SDS011;25875;48.202;16.334;2022-11-20T10:03:03;28.40;;;18.75;;
40154;SDS011;25875;48.202;16.334;2022-11-20T10:05:40;28.58;;;19.85;;
40154;SDS011;25875;48.202;16.334;2022-11-20T10:08:12;33.05;;;20.60;;
40154;SDS011;25875;48.202;16.334;2022-11-20T10:10:46;30.55;;;18.40;;
40154;SDS011;25875;48.202;16.334;2022-11-20T10:13:22;32.47;;;19.50;;
40154;SDS011;25875;48.202;16.334;2022-11-20T10:16:03;28.77;;;18.60;;
40154;SDS011;25875;48.202;16.334;2022-11-20T10:18:44;28.92;;;20.02;;
40154;SDS011;25875;48.202;16.334;2022-11-20T10:21:23;30.85;;;19.45;;
40154;SDS011;25875;48.202;16.334;2022-11-20T10:24:04;28.90;;;19.77;;
40154;SDS011;25875;48.202;16.334;2022-11-20T10:26:46;30.70;;;19.95;;
40154;SDS011;25875;48.202;16.334;2022-11-20T10:29:27;30.08;;;20.20;;
40154;SDS011;25875;48.202;16.334;2022-11-20T10:32:00;28.58;;;19.05;;
40154;SDS011;25875;48.202;16.334;2022-11-20T10:34:31;29.55;;;20.23;;
40154;SDS011;25875;48.202;16.334;2022-11-20T10:37:05;29.55;;;20.02;;
40154;SDS011;25875;48.202;16.334;2022-11-20T10:39:39;29.90;;;19.42;;
40154;SDS011;25875;48.202;16.334;2022-11-20T10:42:11;30.88;;;20.38;;
40154;SDS011;25875;48.202;16.334;2022-11-20T10:44:43;30.08;;;19.65;;
40154;SDS011;25875;48.202;16.334;2022-11-20T10:47:27;31.27;;;20.85;;
40154;SDS011;25875;48.202;16.334;2022-11-20T10:49:58;31.38;;;21.08;;
40154;SDS011;25875;48.202;16.334;2022-11-20T10:52:32;34.95;;;22.33;;
40154;SDS011;25875;48.202;16.334;2022-11-20T10:55:08;30.35;;;20.50;;
40154;SDS011;25875;48.202;16.334;2022-11-20T10:57:51;28.88;;;19.65;;
40154;SDS011;25875;48.202;16.334;2022-11-20T11:00:23;32.17;;;20.58;;
40154;SDS011;25875;48.202;16.334;2022-11-20T11:02:51;29.40;;;20.42;;
40154;SDS011;25875;48.202;16.334;2022-11-20T11:05:27;32.03;;;21.58;;
40154;SDS011;25875;48.202;16.334;2022-11-20T11:08:02;30.70;;;21.25;;
40154;SDS011;25875;48.202;16.334;2022-11-20T11:10:32;33.22;;;21.45;;
40154;SDS011;25875;48.202;16.334;2022-11-20T11:13:07;29.02;;;20.05;;
40154;SDS011;25875;48.202;16.334;2022-11-20T11:15:44;29.23;;;19.42;;
40154;SDS011;25875;48.202;16.334;2022-11-20T11:18:22;32.30;;;21.00;;
40154;SDS011;25875;48.202;16.334;2022-11-20T11:20:54;31.90;;;21.20;;
40154;SDS011;25875;48.202;16.334;2022-11-20T11:23:29;30.33;;;20.75;;
40154;SDS011;25875;48.202;16.334;2022-11-20T11:25:59;36.17;;;19.98;;
40154;SDS011;25875;48.202;16.334;2022-11-20T11:28:27;32.53;;;21.80;;
40154;SDS011;25875;48.202;16.334;2022-11-20T11:30:55;30.95;;;20.88;;
40154;SDS011;25875;48.202;16.334;2022-11-20T11:33:23;28.15;;;20.33;;
40154;SDS011;25875;48.202;16.334;2022-11-20T11:35:54;29.75;;;20.13;;
40154;SDS011;25875;48.202;16.334;2022-11-20T11:38:27;29.65;;;20.52;;
40154;SDS011;25875;48.202;16.334;2022-11-20T11:40:57;30.73;;;21.80;;
40154;SDS011;25875;48.202;16.334;2022-11-20T11:43:25;30.55;;;21.27;;
40154;SDS011;25875;48.202;16.334;2022-11-20T11:46:24;31.83;;;19.40;;
40154;SDS011;25875;48.202;16.334;2022-11-20T11:48:55;31.88;;;21.45;;
40154;SDS011;25875;48.202;16.334;2022-11-20T11:51:25;30.98;;;19.90;;
40154;SDS011;25875;48.202;16.334;2022-11-20T11:53:55;30.88;;;20.35;;
40154;SDS011;25875;48.202;16.334;2022-11-20T11:56:25;28.02;;;19.30;;
40154;SDS011;25875;48.202;16.334;2022-11-20T11:58:53;32.58;;;22.77;;
40154;SDS011;25875;48.202;16.334;2022-11-20T12:01:27;31.98;;;20.23;;
40154;SDS011;25875;48.202;16.334;2022-11-20T12:04:00;31.70;;;22.35;;
40154;SDS011;25875;48.202;16.334;2022-11-20T12:06:37;29.73;;;22.30;;
40154;SDS011;25875;48.202;16.334;2022-11-20T12:09:09;31.10;;;21.63;;
40154;SDS011;25875;48.202;16.334;2022-11-20T12:11:37;32.08;;;21.67;;
40154;SDS011;25875;48.202;16.334;2022-11-20T12:14:11;30.70;;;21.92;;
40154;SDS011;25875;48.202;16.334;2022-11-20T12:16:44;34.03;;;22.52;;
40154;SDS011;25875;48.202;16.334;2022-11-20T12:19:12;29.95;;;21.23;;
40154;SDS011;25875;48.202;16.334;2022-11-20T12:21:45;31.77;;;21.08;;
40154;SDS011;25875;48.202;16.334;2022-11-20T12:24:26;31.33;;;20.27;;
40154;SDS011;25875;48.202;16.334;2022-11-20T12:27:09;30.55;;;20.40;;
40154;SDS011;25875;48.202;16.334;2022-11-20T12:29:56;32.83;;;21.90;;
40154;SDS011;25875;48.202;16.334;2022-11-20T12:32:38;33.75;;;21.52;;
40154;SDS011;25875;48.202;16.334;2022-11-20T12:35:30;33.63;;;21.75;;
40154;SDS011;25875;48.202;16.334;2022-11-20T12:38:26;30.05;;;21.05;;
40154;SDS011;25875;48.202;16.334;2022-11-20T12:41:11;28.70;;;19.50;;
40154;SDS011;25875;48.202;16.334;2022-11-20T12:44:08;27.17;;;19.60;;
40154;SDS011;25875;48.202;16.334;2022-11-20T12:47:07;30.27;;;22.83;;
40154;SDS011;25875;48.202;16.334;2022-11-20T12:49:42;30.17;;;21.33;;
40154;SDS011;25875;48.202;16.334;2022-11-20T12:52:17;27.65;;;19.50;;
40154;SDS011;25875;48.202;16.334;2022-11-20T12:55:00;30.23;;;21.67;;
40154;SDS011;25875;48.202;16.334;2022-11-20T12:57:44;30.02;;;20.25;;
40154;SDS011;25875;48.202;16.334;2022-11-20T13:00:16;29.42;;;21.02;;
40154;SDS011;25875;48.202;16.334;2022-11-20T13:05:59;29.40;;;21.80;;
40154;SDS011;25875;48.202;16.334;2022-11-20T13:08:34;27.50;;;20.52;;
40154;SDS011;25875;48.202;16.334;2022-11-20T13:11:07;26.85;;;19.08;;
40154;SDS011;25875;48.202;16.334;2022-11-20T13:13:42;28.70;;;21.90;;
40154;SDS011;25875;48.202;16.334;2022-11-20T13:16:30;29.52;;;21.25;;
40154;SDS011;25875;48.202;16.334;2022-11-20T13:19:01;31.48;;;21.20;;
40154;SDS011;25875;48.202;16.334;2022-11-20T13:21:35;30.13;;;21.50;;
40154;SDS011;25875;48.202;16.334;2022-11-20T13:24:04;29.95;;;22.63;;
40154;SDS011;25875;48.202;16.334;2022-11-20T13:26:34;30.20;;;22.35;;
40154;SDS011;25875;48.202;16.334;2022-11-20T13:29:07;28.70;;;20.15;;
40154;SDS011;25875;48.202;16.334;2022-11-20T13:31:38;30.83;;;22.23;;
40154;SDS011;25875;48.202;16.334;2022-11-20T13:34:11;27.50;;;20.48;;
40154;SDS011;25875;48.202;16.334;2022-11-20T13:36:48;28.45;;;20.50;;
40154;SDS011;25875;48.202;16.334;2022-11-20T13:39:23;27.50;;;21.55;;
40154;SDS011;25875;48.202;16.334;2022-11-20T13:42:00;24.73;;;18.40;;
40154;SDS011;25875;48.202;16.334;2022-11-20T13:44:33;29.90;;;20.27;;
40154;SDS011;25875;48.202;16.334;2022-11-20T13:49:49;26.65;;;19.27;;
40154;SDS011;25875;48.202;16.334;2022-11-20T13:52:28;27.67;;;20.30;;
40154;SDS011;25875;48.202;16.334;2022-11-20T13:55:07;26.85;;;20.42;;
40154;SDS011;25875;48.202;16.334;2022-11-20T13:57:56;26.63;;;19.05;;
40154;SDS011;25875;48.202;16.334;2022-11-20T14:00:41;30.63;;;21.17;;
40154;SDS011;25875;48.202;16.334;2022-11-20T14:03:13;26.75;;;19.02;;
40154;SDS011;25875;48.202;16.334;2022-11-20T14:05:47;27.30;;;20.38;;
40154;SDS011;25875;48.202;16.334;2022-11-20T14:08:25;23.52;;;17.20;;
40154;SDS011;25875;48.202;16.334;2022-11-20T14:11:11;28.27;;;18.25;;
40154;SDS011;25875;48.202;16.334;2022-11-20T14:13:52;27.15;;;19.73;;
40154;SDS011;25875;48.202;16.334;2022-11-20T14:16:25;29.55;;;19.90;;
40154;SDS011;25875;48.202;16.334;2022-11-20T14:18:54;26.58;;;19.30;;
40154;SDS011;25875;48.202;16.334;2022-11-20T14:21:24;29.20;;;19.58;;
40154;SDS011;25875;48.202;16.334;2022-11-20T14:23:54;27.58;;;20.05;;
40154;SDS011;25875;48.202;16.334;2022-11-20T14:26:29;25.98;;;18.70;;
40154;SDS011;25875;48.202;16.334;2022-11-20T14:29:00;28.88;;;19.90;;
40154;SDS011;25875;48.202;16.334;2022-11-20T14:31:27;26.70;;;19.13;;
40154;SDS011;25875;48.202;16.334;2022-11-20T14:33:55;29.35;;;20.60;;